createdAt,value
2017-08-22T00:01:05.810Z,1016.29
2017-08-22T00:02:14.765Z,1016.3
2017-08-22T00:03:24.375Z,1016.27
2017-08-22T00:04:33.325Z,1016.28
2017-08-22T00:05:42.275Z,1016.23
2017-08-22T00:06:51.235Z,1016.21
2017-08-22T00:08:00.186Z,1016.22
2017-08-22T00:09:09.132Z,1016.2
2017-08-22T00:10:18.418Z,1016.25
2017-08-22T00:11:27.377Z,1016.21
2017-08-22T00:12:36.340Z,1016.21
2017-08-22T00:13:45.300Z,1016.23
2017-08-22T00:14:54.249Z,1016.18
2017-08-22T00:16:03.210Z,1016.2
2017-08-22T00:17:12.492Z,1016.21
2017-08-22T00:18:21.450Z,1016.19
2017-08-22T00:19:30.404Z,1016.18
2017-08-22T00:20:39.356Z,1016.2
2017-08-22T00:21:48.324Z,1016.18
2017-08-22T00:22:57.287Z,1016.16
2017-08-22T00:24:06.239Z,1016.14
2017-08-22T00:25:15.195Z,1016.18
2017-08-22T00:26:24.153Z,1016.16
2017-08-22T00:27:33.104Z,1016.16
2017-08-22T00:28:42.058Z,1016.14
2017-08-22T00:29:51.020Z,1016.18
2017-08-22T00:30:59.976Z,1016.2
2017-08-22T00:32:08.945Z,1016.21
2017-08-22T00:33:17.897Z,1016.2
2017-08-22T00:34:26.853Z,1016.21
2017-08-22T00:35:35.806Z,1016.21
2017-08-22T00:36:44.758Z,1016.19
2017-08-22T00:37:53.718Z,1016.19
2017-08-22T00:39:02.999Z,1016.18
2017-08-22T00:40:11.951Z,1016.18
2017-08-22T00:41:20.898Z,1016.24
2017-08-22T00:42:29.847Z,1016.21
2017-08-22T00:43:39.123Z,1016.18
2017-08-22T00:44:48.087Z,1016.15
2017-08-22T00:45:57.043Z,1016.13
2017-08-22T00:47:05.999Z,1016.16
2017-08-22T00:48:14.955Z,1016.15
2017-08-22T00:49:23.906Z,1016.13
2017-08-22T00:50:32.863Z,1016.14
2017-08-22T00:51:41.816Z,1016.17
2017-08-22T00:52:51.101Z,1016.14
2017-08-22T00:54:00.052Z,1016.18
2017-08-22T00:55:09.011Z,1016.19
2017-08-22T00:56:17.970Z,1016.22
2017-08-22T00:57:26.922Z,1016.22
2017-08-22T00:58:35.883Z,1016.24
2017-08-22T00:59:45.162Z,1016.22
2017-08-22T01:00:54.112Z,1016.27
2017-08-22T01:02:03.074Z,1016.3
2017-08-22T01:03:12.037Z,1016.36
2017-08-22T01:04:20.997Z,1016.35
2017-08-22T01:05:29.968Z,1016.36
2017-08-22T01:06:39.263Z,1016.33
2017-08-22T01:07:48.218Z,1016.32
2017-08-22T01:08:57.175Z,1016.29
2017-08-22T01:10:06.139Z,1016.29
2017-08-22T01:11:15.095Z,1016.3
2017-08-22T01:12:24.052Z,1016.3
2017-08-22T01:13:33.346Z,1016.3
2017-08-22T01:14:42.304Z,1016.36
2017-08-22T01:15:51.261Z,1016.35
2017-08-22T01:17:00.222Z,1016.38
2017-08-22T01:18:09.173Z,1016.39
2017-08-22T01:19:18.129Z,1016.36
2017-08-22T01:20:27.079Z,1016.4
2017-08-22T01:21:36.037Z,1016.38
2017-08-22T01:22:44.992Z,1016.4
2017-08-22T01:23:53.947Z,1016.43
2017-08-22T01:25:03.232Z,1016.45
2017-08-22T01:26:12.532Z,1016.43
2017-08-22T01:27:21.495Z,1016.39
2017-08-22T01:28:30.777Z,1016.37
2017-08-22T01:29:39.732Z,1016.42
2017-08-22T01:30:48.693Z,1016.39
2017-08-22T01:31:57.646Z,1016.39
2017-08-22T01:33:06.606Z,1016.41
2017-08-22T01:34:15.555Z,1016.38
2017-08-22T01:35:24.501Z,1016.4
2017-08-22T01:36:33.456Z,1016.41
2017-08-22T01:37:42.422Z,1016.39
2017-08-22T01:38:51.697Z,1016.4
2017-08-22T01:40:00.649Z,1016.39
2017-08-22T01:41:09.614Z,1016.4
2017-08-22T01:42:18.569Z,1016.41
2017-08-22T01:43:27.527Z,1016.39
2017-08-22T01:44:36.481Z,1016.39
2017-08-22T01:45:45.443Z,1016.36
2017-08-22T01:46:54.716Z,1016.39
2017-08-22T01:48:03.678Z,1016.4
2017-08-22T01:49:12.636Z,1016.36
2017-08-22T01:50:21.585Z,1016.38
2017-08-22T01:51:30.541Z,1016.38
2017-08-22T01:52:39.499Z,1016.33
2017-08-22T01:53:48.455Z,1016.29
2017-08-22T01:54:57.409Z,1016.31
2017-08-22T01:56:06.371Z,1016.32
2017-08-22T01:57:15.333Z,1016.32
2017-08-22T01:58:24.284Z,1016.36
2017-08-22T01:59:33.239Z,1016.32
2017-08-22T02:00:42.192Z,1016.34
2017-08-22T02:01:51.146Z,1016.31
2017-08-22T02:03:00.095Z,1016.31
2017-08-22T02:04:09.049Z,1016.29
2017-08-22T02:05:18.329Z,1016.3
2017-08-22T02:06:27.611Z,1016.26
2017-08-22T02:07:36.574Z,1016.27
2017-08-22T02:08:45.530Z,1016.3
2017-08-22T02:09:54.477Z,1016.26
2017-08-22T02:11:03.436Z,1016.26
2017-08-22T02:12:12.391Z,1016.21
2017-08-22T02:13:21.345Z,1016.18
2017-08-22T02:14:30.306Z,1016.22
2017-08-22T02:15:39.263Z,1016.21
2017-08-22T02:16:48.213Z,1016.23
2017-08-22T02:17:57.166Z,1016.2
2017-08-22T02:19:06.447Z,1016.21
2017-08-22T02:20:15.399Z,1016.22
2017-08-22T02:21:24.358Z,1016.23
2017-08-22T02:22:33.308Z,1016.27
2017-08-22T02:23:42.260Z,1016.24
2017-08-22T02:24:51.214Z,1016.24
2017-08-22T02:26:00.167Z,1016.23
2017-08-22T02:27:09.120Z,1016.25
2017-08-22T02:28:18.072Z,1016.25
2017-08-22T02:29:27.014Z,1016.23
2017-08-22T02:30:35.965Z,1016.26
2017-08-22T02:31:44.933Z,1016.24
2017-08-22T02:32:53.886Z,1016.26
2017-08-22T02:34:02.836Z,1016.23
2017-08-22T02:35:11.805Z,1016.28
2017-08-22T02:36:20.778Z,1016.32
2017-08-22T02:37:29.733Z,1016.32
2017-08-22T02:38:38.679Z,1016.28
2017-08-22T02:39:47.656Z,1016.3
2017-08-22T02:40:56.600Z,1016.3
2017-08-22T02:42:05.895Z,1016.3
2017-08-22T02:43:14.848Z,1016.3
2017-08-22T02:44:23.816Z,1016.31
2017-08-22T02:45:33.091Z,1016.3
2017-08-22T02:46:42.041Z,1016.31
2017-08-22T02:47:50.993Z,1016.34
2017-08-22T02:49:00.369Z,1016.32
2017-08-22T02:50:09.319Z,1016.36
2017-08-22T02:51:18.274Z,1016.29
2017-08-22T02:52:27.233Z,1016.35
2017-08-22T02:53:36.194Z,1016.33
2017-08-22T02:54:45.147Z,1016.34
2017-08-22T02:55:54.094Z,1016.34
2017-08-22T02:57:03.033Z,1016.36
2017-08-22T02:58:11.987Z,1016.34
2017-08-22T02:59:20.940Z,1016.35
2017-08-22T03:00:29.897Z,1016.3
2017-08-22T03:01:38.862Z,1016.3
2017-08-22T03:02:47.818Z,1016.31
2017-08-22T03:03:56.770Z,1016.27
2017-08-22T03:05:06.043Z,1016.23
2017-08-22T03:06:15.336Z,1016.23
2017-08-22T03:07:24.385Z,1016.22
2017-08-22T03:08:33.343Z,1016.21
2017-08-22T03:09:42.291Z,1016.2
2017-08-22T03:10:51.290Z,1016.26
2017-08-22T03:12:00.265Z,1016.24
2017-08-22T03:13:09.255Z,1016.28
2017-08-22T03:14:18.222Z,1016.28
2017-08-22T03:15:27.184Z,1016.28
2017-08-22T03:16:36.461Z,1016.28
2017-08-22T03:17:45.430Z,1016.29
2017-08-22T03:18:54.380Z,1016.26
2017-08-22T03:20:03.326Z,1016.28
2017-08-22T03:21:12.283Z,1016.32
2017-08-22T03:22:21.260Z,1016.33
2017-08-22T03:23:30.222Z,1016.3
2017-08-22T03:24:39.500Z,1016.32
2017-08-22T03:25:48.461Z,1016.29
2017-08-22T03:26:57.414Z,1016.27
2017-08-22T03:28:06.370Z,1016.25
2017-08-22T03:29:15.423Z,1016.27
2017-08-22T03:30:27.406Z,1016.26
2017-08-22T03:31:36.372Z,1016.28
2017-08-22T03:32:45.332Z,1016.32
2017-08-22T03:33:54.278Z,1016.26
2017-08-22T03:35:03.231Z,1016.28
2017-08-22T03:36:12.180Z,1016.28
2017-08-22T03:37:21.125Z,1016.27
2017-08-22T03:38:30.091Z,1016.27
2017-08-22T03:39:39.051Z,1016.31
2017-08-22T03:40:48.006Z,1016.25
2017-08-22T03:41:57.294Z,1016.27
2017-08-22T03:43:06.244Z,1016.23
2017-08-22T03:44:15.203Z,1016.25
2017-08-22T03:45:24.486Z,1016.27
2017-08-22T03:46:33.440Z,1016.26
2017-08-22T03:47:42.394Z,1016.28
2017-08-22T03:48:51.342Z,1016.29
2017-08-22T03:50:00.299Z,1016.29
2017-08-22T03:51:09.254Z,1016.3
2017-08-22T03:52:18.208Z,1016.29
2017-08-22T03:53:27.490Z,1016.31
2017-08-22T03:54:36.440Z,1016.29
2017-08-22T03:55:45.392Z,1016.3
2017-08-22T03:56:54.341Z,1016.26
2017-08-22T03:58:03.302Z,1016.29
2017-08-22T03:59:12.594Z,1016.26
2017-08-22T04:00:21.883Z,1016.26
2017-08-22T04:01:30.840Z,1016.25
2017-08-22T04:02:39.794Z,1016.26
2017-08-22T04:03:48.749Z,1016.26
2017-08-22T04:04:57.709Z,1016.27
2017-08-22T04:06:06.664Z,1016.21
2017-08-22T04:07:15.627Z,1016.22
2017-08-22T04:08:24.591Z,1016.25
2017-08-22T04:09:33.544Z,1016.23
2017-08-22T04:10:42.499Z,1016.28
2017-08-22T04:11:51.456Z,1016.23
2017-08-22T04:13:00.418Z,1016.22
2017-08-22T04:14:09.370Z,1016.25
2017-08-22T04:15:18.318Z,1016.21
2017-08-22T04:16:27.271Z,1016.21
2017-08-22T04:17:36.262Z,1016.19
2017-08-22T04:18:45.222Z,1016.19
2017-08-22T04:19:54.171Z,1016.2
2017-08-22T04:21:03.121Z,1016.19
2017-08-22T04:22:12.073Z,1016.22
2017-08-22T04:23:21.028Z,1016.24
2017-08-22T04:24:30.309Z,1016.21
2017-08-22T04:25:39.253Z,1016.21
2017-08-22T04:26:48.208Z,1016.21
2017-08-22T04:27:57.168Z,1016.22
2017-08-22T04:29:06.126Z,1016.24
2017-08-22T04:30:15.075Z,1016.23
2017-08-22T04:31:24.035Z,1016.23
2017-08-22T04:32:33.308Z,1016.24
2017-08-22T04:33:42.585Z,1016.24
2017-08-22T04:34:51.533Z,1016.25
2017-08-22T04:36:00.809Z,1016.24
2017-08-22T04:37:09.760Z,1016.29
2017-08-22T04:38:18.719Z,1016.3
2017-08-22T04:39:27.672Z,1016.25
2017-08-22T04:40:36.980Z,1016.26
2017-08-22T04:41:46.264Z,1016.28
2017-08-22T04:42:55.539Z,1016.23
2017-08-22T04:44:04.508Z,1016.29
2017-08-22T04:45:13.463Z,1016.26
2017-08-22T04:46:22.415Z,1016.28
2017-08-22T04:47:31.367Z,1016.22
2017-08-22T04:48:40.675Z,1016.26
2017-08-22T04:49:49.625Z,1016.25
2017-08-22T04:50:58.900Z,1016.22
2017-08-22T04:52:07.859Z,1016.28
2017-08-22T04:53:16.820Z,1016.27
2017-08-22T04:54:25.781Z,1016.29
2017-08-22T04:55:34.738Z,1016.28
2017-08-22T04:56:43.698Z,1016.26
2017-08-22T04:57:52.654Z,1016.24
2017-08-22T04:59:01.612Z,1016.25
2017-08-22T05:00:10.564Z,1016.26
2017-08-22T05:01:19.515Z,1016.24
2017-08-22T05:02:28.464Z,1016.24
2017-08-22T05:03:37.435Z,1016.27
2017-08-22T05:04:46.712Z,1016.28
2017-08-22T05:05:55.665Z,1016.29
2017-08-22T05:07:04.623Z,1016.31
2017-08-22T05:08:13.573Z,1016.33
2017-08-22T05:09:22.541Z,1016.27
2017-08-22T05:10:31.495Z,1016.29
2017-08-22T05:11:40.448Z,1016.26
2017-08-22T05:12:49.406Z,1016.21
2017-08-22T05:13:58.360Z,1016.23
2017-08-22T05:15:07.312Z,1016.23
2017-08-22T05:16:16.262Z,1016.19
2017-08-22T05:17:25.229Z,1016.2
2017-08-22T05:18:34.192Z,1016.21
2017-08-22T05:19:43.137Z,1016.18
2017-08-22T05:20:52.093Z,1016.22
2017-08-22T05:22:01.048Z,1016.2
2017-08-22T05:23:10.000Z,1016.23
2017-08-22T05:24:18.948Z,1016.28
2017-08-22T05:25:27.907Z,1016.26
2017-08-22T05:26:37.182Z,1016.27
2017-08-22T05:27:46.453Z,1016.24
2017-08-22T05:28:55.402Z,1016.26
2017-08-22T05:30:04.349Z,1016.19
2017-08-22T05:31:13.304Z,1016.21
2017-08-22T05:32:22.257Z,1016.25
2017-08-22T05:33:31.204Z,1016.28
2017-08-22T05:34:40.155Z,1016.22
2017-08-22T05:35:49.108Z,1016.22
2017-08-22T05:36:58.065Z,1016.19
2017-08-22T05:38:07.014Z,1016.12
2017-08-22T05:39:15.962Z,1016.21
2017-08-22T05:40:24.914Z,1016.23
2017-08-22T05:41:33.868Z,1016.22
2017-08-22T05:42:42.824Z,1016.2
2017-08-22T05:43:52.132Z,1016.24
2017-08-22T05:45:01.114Z,1016.24
2017-08-22T05:46:10.086Z,1016.26
2017-08-22T05:47:19.038Z,1016.22
2017-08-22T05:48:27.992Z,1016.24
2017-08-22T05:49:36.948Z,1016.24
2017-08-22T05:50:45.895Z,1016.3
2017-08-22T05:51:54.856Z,1016.32
2017-08-22T05:53:03.805Z,1016.27
2017-08-22T05:54:12.773Z,1016.3
2017-08-22T05:55:21.726Z,1016.27
2017-08-22T05:56:30.684Z,1016.28
2017-08-22T05:57:39.660Z,1016.3
2017-08-22T05:58:48.609Z,1016.32
2017-08-22T05:59:57.570Z,1016.32
2017-08-22T06:01:06.852Z,1016.34
2017-08-22T06:02:15.809Z,1016.38
2017-08-22T06:03:24.761Z,1016.3
2017-08-22T06:04:33.712Z,1016.32
2017-08-22T06:05:42.656Z,1016.37
2017-08-22T06:06:51.599Z,1016.35
2017-08-22T06:08:00.542Z,1016.32
2017-08-22T06:09:09.487Z,1016.36
2017-08-22T06:10:18.764Z,1016.35
2017-08-22T06:11:27.725Z,1016.29
2017-08-22T06:12:36.683Z,1016.29
2017-08-22T06:13:45.645Z,1016.31
2017-08-22T06:14:54.600Z,1016.34
2017-08-22T06:16:03.565Z,1016.22
2017-08-22T06:17:12.516Z,1016.27
2017-08-22T06:18:21.470Z,1016.29
2017-08-22T06:19:30.413Z,1016.34
2017-08-22T06:20:39.366Z,1016.34
2017-08-22T06:21:48.325Z,1016.35
2017-08-22T06:22:57.277Z,1016.33
2017-08-22T06:24:06.254Z,1016.38
2017-08-22T06:25:15.541Z,1016.34
2017-08-22T06:26:24.490Z,1016.36
2017-08-22T06:27:33.452Z,1016.36
2017-08-22T06:28:42.417Z,1016.35
2017-08-22T06:29:51.369Z,1016.39
2017-08-22T06:31:00.654Z,1016.38
2017-08-22T06:32:09.613Z,1016.4
2017-08-22T06:33:18.563Z,1016.39
2017-08-22T06:34:27.520Z,1016.4
2017-08-22T06:35:36.478Z,1016.41
2017-08-22T06:36:45.749Z,1016.37
2017-08-22T06:37:54.704Z,1016.36
2017-08-22T06:39:03.655Z,1016.34
2017-08-22T06:40:12.604Z,1016.35
2017-08-22T06:41:21.561Z,1016.32
2017-08-22T06:42:30.519Z,1016.3
2017-08-22T06:43:39.475Z,1016.32
2017-08-22T06:44:48.437Z,1016.35
2017-08-22T06:45:57.433Z,1016.31
2017-08-22T06:47:06.396Z,1016.29
2017-08-22T06:48:15.349Z,1016.33
2017-08-22T06:49:24.301Z,1016.36
2017-08-22T06:50:33.260Z,1016.38
2017-08-22T06:51:42.540Z,1016.37
2017-08-22T06:52:51.826Z,1016.35
2017-08-22T06:54:00.790Z,1016.37
2017-08-22T06:55:10.068Z,1016.42
2017-08-22T06:56:19.028Z,1016.41
2017-08-22T06:57:27.982Z,1016.4
2017-08-22T06:58:36.936Z,1016.39
2017-08-22T06:59:46.225Z,1016.38
2017-08-22T07:00:55.194Z,1016.41
2017-08-22T07:02:04.152Z,1016.44
2017-08-22T07:03:13.110Z,1016.44
2017-08-22T07:04:22.069Z,1016.44
2017-08-22T07:05:31.032Z,1016.38
2017-08-22T07:06:39.988Z,1016.4
2017-08-22T07:07:48.943Z,1016.41
2017-08-22T07:08:57.896Z,1016.39
2017-08-22T07:10:06.839Z,1016.41
2017-08-22T07:11:15.791Z,1016.34
2017-08-22T07:12:24.745Z,1016.37
2017-08-22T07:13:33.703Z,1016.41
2017-08-22T07:14:42.652Z,1016.41
2017-08-22T07:15:51.616Z,1016.35
2017-08-22T07:17:00.566Z,1016.37
2017-08-22T07:18:09.532Z,1016.39
2017-08-22T07:19:18.486Z,1016.38
2017-08-22T07:20:27.436Z,1016.46
2017-08-22T07:21:36.722Z,1016.44
2017-08-22T07:22:45.682Z,1016.41
2017-08-22T07:23:54.640Z,1016.33
2017-08-22T07:25:03.598Z,1016.34
2017-08-22T07:26:12.554Z,1016.32
2017-08-22T07:27:21.515Z,1016.29
2017-08-22T07:28:30.468Z,1016.3
2017-08-22T07:29:39.738Z,1016.29
2017-08-22T07:30:48.689Z,1016.26
2017-08-22T07:31:57.963Z,1016.27
2017-08-22T07:33:06.926Z,1016.23
2017-08-22T07:34:15.880Z,1016.24
2017-08-22T07:35:24.832Z,1016.21
2017-08-22T07:36:33.781Z,1016.17
2017-08-22T07:37:42.737Z,1016.21
2017-08-22T07:38:52.011Z,1016.22
2017-08-22T07:40:00.972Z,1016.24
2017-08-22T07:41:10.251Z,1016.18
2017-08-22T07:42:19.869Z,1016.19
2017-08-22T07:43:28.834Z,1016.16
2017-08-22T07:44:37.788Z,1016.14
2017-08-22T07:45:46.735Z,1016.15
2017-08-22T07:46:55.685Z,1016.19
2017-08-22T07:48:04.638Z,1016.18
2017-08-22T07:49:13.600Z,1016.18
2017-08-22T07:50:22.555Z,1016.17
2017-08-22T07:51:31.505Z,1016.14
2017-08-22T07:52:40.473Z,1016.2
2017-08-22T07:53:49.438Z,1016.16
2017-08-22T07:54:59.042Z,1016.18
2017-08-22T07:56:08.342Z,1016.16
2017-08-22T07:57:17.292Z,1016.16
2017-08-22T07:58:26.246Z,1016.1
2017-08-22T07:59:35.215Z,1016.09
2017-08-22T08:00:44.168Z,1016.15
2017-08-22T08:01:53.119Z,1016.14
2017-08-22T08:03:02.088Z,1016.19
2017-08-22T08:04:11.043Z,1016.17
2017-08-22T08:05:20.327Z,1016.17
2017-08-22T08:06:29.282Z,1016.22
2017-08-22T08:07:38.240Z,1016.22
2017-08-22T08:08:47.199Z,1016.24
2017-08-22T08:09:56.154Z,1016.21
2017-08-22T08:11:05.111Z,1016.22
2017-08-22T08:12:14.063Z,1016.21
2017-08-22T08:13:23.015Z,1016.27
2017-08-22T08:14:32.289Z,1016.27
2017-08-22T08:15:41.251Z,1016.25
2017-08-22T08:16:50.205Z,1016.26
2017-08-22T08:17:59.159Z,1016.23
2017-08-22T08:19:08.125Z,1016.28
2017-08-22T08:20:17.079Z,1016.31
2017-08-22T08:21:26.051Z,1016.35
2017-08-22T08:22:35.055Z,1016.27
2017-08-22T08:23:44.010Z,1016.33
2017-08-22T08:24:52.969Z,1016.32
2017-08-22T08:26:02.245Z,1016.38
2017-08-22T08:27:11.208Z,1016.33
2017-08-22T08:28:20.159Z,1016.36
2017-08-22T08:29:29.116Z,1016.41
2017-08-22T08:30:38.068Z,1016.39
2017-08-22T08:31:47.017Z,1016.38
2017-08-22T08:32:55.984Z,1016.34
2017-08-22T08:34:04.942Z,1016.4
2017-08-22T08:35:13.890Z,1016.35
2017-08-22T08:36:22.837Z,1016.34
2017-08-22T08:37:31.790Z,1016.32
2017-08-22T08:38:40.773Z,1016.33
2017-08-22T08:39:49.727Z,1016.31
2017-08-22T08:40:58.676Z,1016.33
2017-08-22T08:42:07.965Z,1016.29
2017-08-22T08:43:16.934Z,1016.32
2017-08-22T08:44:25.886Z,1016.28
2017-08-22T08:45:34.843Z,1016.3
2017-08-22T08:46:43.801Z,1016.33
2017-08-22T08:47:52.754Z,1016.32
2017-08-22T08:49:01.705Z,1016.31
2017-08-22T08:50:10.658Z,1016.3
2017-08-22T08:51:19.605Z,1016.25
2017-08-22T08:52:28.895Z,1016.27
2017-08-22T08:53:38.175Z,1016.28
2017-08-22T08:54:47.129Z,1016.27
2017-08-22T08:55:56.078Z,1016.25
2017-08-22T08:57:05.038Z,1016.26
2017-08-22T08:58:13.996Z,1016.26
2017-08-22T08:59:22.948Z,1016.23
2017-08-22T09:00:32.232Z,1016.27
2017-08-22T09:01:41.522Z,1016.21
2017-08-22T09:02:50.473Z,1016.27
2017-08-22T09:03:59.425Z,1016.22
2017-08-22T09:05:08.383Z,1016.23
2017-08-22T15:50:54.913Z,1015.14
2017-08-22T15:52:03.838Z,1015.15
2017-08-22T15:53:12.801Z,1015.17
2017-08-22T15:54:22.359Z,1015.15
2017-08-22T15:55:31.964Z,1015.13
2017-08-22T15:56:41.456Z,1015.17
2017-08-22T15:57:52.075Z,1015.12
2017-08-22T15:59:07.184Z,1015.13
2017-08-22T16:00:17.107Z,1015.18
2017-08-22T16:01:26.660Z,1015.14
2017-08-22T16:02:37.177Z,1015.14
2017-08-22T16:03:47.096Z,1015.13
2017-08-22T16:04:57.001Z,1015.12
2017-08-22T16:06:06.901Z,1015.12
2017-08-22T16:07:16.742Z,1015.14
2017-08-22T16:44:16.631Z,1015.1
2017-08-22T16:45:25.823Z,1015.09
2017-08-22T16:46:35.399Z,1015.08
2017-08-22T16:47:45.305Z,1015.09
2017-08-22T16:48:54.672Z,1015.1
2017-08-22T16:50:04.421Z,1015.08
2017-08-22T16:51:14.120Z,1015.07
